Time;durP1;ratioP1;P1;durP2;ratioP2;P2;SDS_P1;SDS_P2;PMS_P1;PMS_P2;Temp;Humidity;BMP_temperature;BMP_pressure;BME280_temperature;BME280_humidity;BME280_pressure;Samples;Min_cycle;Max_cycle;Signal;HPM_P1;HPM_P2
2021/04/27 00:02:18;;;;;;;32.33;13.07;;;;;;;-0.16;48.29;99110.20;114614;1193;64426;-81
2021/04/27 00:04:45;;;;;;;29.15;10.85;;;;;;;-0.14;48.78;99108.38;114300;1193;64302;-82
2021/04/27 00:07:11;;;;;;;40.00;13.33;;;;;;;-0.16;48.50;99107.58;114255;1193;64404;-81
2021/04/27 00:09:38;;;;;;;34.70;13.10;;;;;;;-0.16;48.84;99104.95;114555;1192;64380;-80
2021/04/27 00:12:05;;;;;;;31.90;12.77;;;;;;;-0.18;49.08;99101.52;114246;1193;64429;-82
2021/04/27 00:14:33;;;;;;;27.77;11.90;;;;;;;-0.18;49.13;99097.13;114273;1193;64458;-80
2021/04/27 00:17:00;;;;;;;27.40;11.10;;;;;;;-0.22;48.81;99097.25;114321;1193;64368;-80
2021/04/27 00:19:26;;;;;;;33.30;12.10;;;;;;;-0.25;48.72;99095.58;114224;1193;64518;-82
2021/04/27 00:21:53;;;;;;;29.97;11.53;;;;;;;-0.27;48.79;99100.84;114464;1193;64305;-82
2021/04/27 00:24:20;;;;;;;33.67;11.43;;;;;;;-0.31;48.71;99093.98;114260;1193;64356;-80
2021/04/27 00:26:47;;;;;;;32.85;13.30;;;;;;;-0.39;49.14;99093.31;114277;1193;64391;-81
2021/04/27 00:29:14;;;;;;;35.85;13.15;;;;;;;-0.43;49.07;99094.31;114427;1193;64375;-79
2021/04/27 00:31:41;;;;;;;29.83;13.37;;;;;;;-0.49;49.45;99085.75;114497;1193;64394;-80
2021/04/27 00:34:08;;;;;;;28.40;12.07;;;;;;;-0.58;48.97;99085.07;114398;1193;64976;-79
2021/04/27 00:36:36;;;;;;;23.97;11.57;;;;;;;-0.64;49.37;99085.23;114450;1193;64385;-80
2021/04/27 00:39:03;;;;;;;27.53;11.20;;;;;;;-0.68;49.84;99080.99;114494;1193;64808;-79
2021/04/27 00:41:30;;;;;;;34.50;12.20;;;;;;;-0.72;49.16;99076.72;114512;1193;64611;-80
2021/04/27 00:43:58;;;;;;;28.00;11.70;;;;;;;-0.75;49.89;99078.58;114613;1193;64401;-79
2021/04/27 00:46:28;;;;;;;29.20;12.53;;;;;;;-0.75;50.04;99075.95;114779;1193;64484;-79
2021/04/27 00:48:55;;;;;;;31.43;12.10;;;;;;;-0.78;50.09;99071.63;114465;1193;64434;-78
2021/04/27 00:51:22;;;;;;;28.87;11.83;;;;;;;-0.79;50.07;99074.30;114494;1193;64321;-78
2021/04/27 00:53:51;;;;;;;28.67;11.77;;;;;;;-0.80;49.68;99067.34;114438;1193;64330;-78
2021/04/27 00:56:22;;;;;;;36.15;11.20;;;;;;;-0.82;49.67;99073.48;114724;1193;64465;-79
2021/04/27 00:58:49;;;;;;;31.60;11.90;;;;;;;-0.80;50.14;99069.96;114436;1193;64359;-79
2021/04/27 01:01:19;;;;;;;29.00;13.30;;;;;;;-0.79;50.18;99064.67;114449;1193;64417;-79
2021/04/27 01:03:46;;;;;;;32.70;13.70;;;;;;;-0.82;50.04;99068.25;114423;1193;64369;-79
2021/04/27 01:06:13;;;;;;;33.00;14.90;;;;;;;-0.85;49.97;99070.07;114687;1193;64339;-79
2021/04/27 01:09:02;;;;;;;39.43;14.83;;;;;;;-0.87;50.17;99064.88;114145;1193;64378;-79
2021/04/27 01:11:58;;;;;;;37.53;15.00;;;;;;;-0.95;50.00;99069.46;114450;1193;64461;-79
2021/04/27 01:14:35;;;;;;;33.30;13.90;;;;;;;-0.96;50.05;99062.47;114495;1193;64385;-78
2021/04/27 01:17:06;;;;;;;37.47;15.30;;;;;;;-0.95;50.34;99065.98;114530;1193;64397;-78
2021/04/27 01:20:04;;;;;;;30.10;12.90;;;;;;;-1.01;50.73;99068.76;114563;1193;64567;-79
2021/04/27 01:22:58;;;;;;;38.70;13.80;;;;;;;-1.09;50.38;99064.54;114458;1193;64368;-78
2021/04/27 01:25:33;;;;;;;36.17;13.50;;;;;;;-1.08;50.13;99068.05;114422;1193;64410;-78
2021/04/27 01:28:05;;;;;;;41.10;13.20;;;;;;;-1.09;50.42;99069.78;114797;1193;64299;-78
2021/04/27 01:30:39;;;;;;;31.17;12.07;;;;;;;-1.07;50.44;99064.53;114291;1193;64385;-80
2021/04/27 01:33:14;;;;;;;37.80;13.05;;;;;;;-1.12;50.37;99069.02;114439;1193;64374;-80
2021/04/27 01:35:42;;;;;;;24.60;9.70;;;;;;;-1.09;50.86;99071.55;114576;1193;64321;-79
2021/04/27 01:38:13;;;;;;;36.30;13.77;;;;;;;-1.10;50.44;99069.83;114834;1192;64398;-80
2021/04/27 01:40:41;;;;;;;61.87;19.40;;;;;;;-1.14;50.79;99066.44;114391;1193;64353;-81
2021/04/27 01:43:09;;;;;;;59.30;22.20;;;;;;;-1.19;50.86;99072.69;114318;1193;64369;-83
2021/04/27 01:45:38;;;;;;;59.73;21.77;;;;;;;-1.26;51.05;99065.88;114314;1193;64427;-82
2021/04/27 01:48:06;;;;;;;62.27;22.03;;;;;;;-1.34;51.03;99067.80;114282;1193;64346;-81
2021/04/27 01:50:34;;;;;;;53.65;19.45;;;;;;;-1.39;51.41;99063.55;114281;1193;64503;-81
2021/04/27 01:53:19;;;;;;;48.57;17.73;;;;;;;-1.43;51.38;99063.66;114422;1192;64426;-81
2021/04/27 01:55:46;;;;;;;41.00;16.13;;;;;;;-1.44;51.17;99056.70;114257;1193;64400;-83
2021/04/27 01:58:14;;;;;;;38.40;15.63;;;;;;;-1.44;51.42;99068.03;114278;1192;64454;-82
2021/04/27 02:00:40;;;;;;;40.40;14.30;;;;;;;-1.35;51.90;99064.32;114585;1193;64422;-80
2021/04/27 02:03:07;;;;;;;48.73;15.23;;;;;;;-1.29;51.67;99065.94;114262;1193;64397;-83
2021/04/27 02:05:38;;;;;;;41.93;14.90;;;;;;;-1.37;51.49;99056.51;114243;1193;64391;-81
2021/04/27 02:08:15;;;;;;;44.97;16.17;;;;;;;-1.46;51.44;99056.74;114736;1193;64438;-79
2021/04/27 02:10:44;;;;;;;37.07;14.80;;;;;;;-1.51;51.60;99052.50;114261;1193;64398;-81
2021/04/27 02:13:16;;;;;;;54.03;18.30;;;;;;;-1.55;51.27;99058.70;114359;1193;64445;-81
2021/04/27 02:15:49;;;;;;;48.57;20.00;;;;;;;-1.50;51.88;99057.70;114294;1193;64356;-81
2021/04/27 02:18:20;;;;;;;61.20;22.90;;;;;;;-1.46;51.67;99056.74;114306;1193;64394;-82
2021/04/27 02:20:50;;;;;;;49.40;20.50;;;;;;;-1.52;51.78;99056.88;114364;1193;64410;-85
2021/04/27 02:23:36;;;;;;;61.45;20.65;;;;;;;-1.62;51.93;99050.13;114577;1193;64455;-80
2021/04/27 02:26:14;;;;;;;57.03;22.30;;;;;;;-1.70;51.85;99052.06;114301;1193;64297;-82
2021/04/27 02:28:46;;;;;;;52.40;18.90;;;;;;;-1.77;52.47;99040.88;114752;1193;64455;-82
2021/04/27 02:31:13;;;;;;;42.03;15.27;;;;;;;-1.79;52.19;99044.41;114449;1193;64302;-83
2021/04/27 02:33:41;;;;;;;42.40;16.07;;;;;;;-1.76;52.34;99042.59;114363;1193;64343;-81
2021/04/27 02:36:08;;;;;;;37.60;14.75;;;;;;;-1.67;52.20;99044.98;114343;1193;64540;-81
2021/04/27 02:38:47;;;;;;;44.95;18.20;;;;;;;-1.65;52.05;99040.59;114284;1193;64311;-83
2021/04/27 02:41:14;;;;;;;45.55;16.35;;;;;;;-1.66;51.83;99043.22;114744;1193;64371;-82
2021/04/27 02:43:41;;;;;;;43.97;17.63;;;;;;;-1.68;52.10;99045.88;114349;1193;64516;-82
2021/04/27 02:46:08;;;;;;;54.40;19.03;;;;;;;-1.73;52.23;99037.27;114251;1193;64432;-83
2021/04/27 02:48:47;;;;;;;60.20;21.63;;;;;;;-1.75;52.44;99032.98;114451;1193;64426;-83
2021/04/27 02:51:19;;;;;;;63.80;23.60;;;;;;;-1.73;51.91;99039.03;114482;1193;64324;-82
2021/04/27 02:53:54;;;;;;;65.63;24.03;;;;;;;-1.69;52.47;99038.93;114308;1193;64375;-81
2021/04/27 02:56:21;;;;;;;55.37;22.97;;;;;;;-1.73;52.91;99041.64;114423;1193;64369;-82
2021/04/27 02:58:50;;;;;;;67.50;22.80;;;;;;;-1.77;53.00;99045.25;114239;1193;64387;-82
2021/04/27 03:01:17;;;;;;;66.37;23.73;;;;;;;-1.80;52.84;99040.06;114273;1193;64308;-83
2021/04/27 03:03:44;;;;;;;53.37;22.00;;;;;;;-1.80;52.53;99043.55;114679;1193;64407;-83
2021/04/27 03:06:11;;;;;;;58.55;21.75;;;;;;;-1.82;53.20;99037.49;114226;1193;64356;-82
2021/04/27 03:09:04;;;;;;;61.63;24.27;;;;;;;-1.87;52.79;99041.96;114286;1193;64435;-84
2021/04/27 03:11:31;;;;;;;51.57;22.10;;;;;;;-1.91;52.89;99045.53;114405;1193;64427;-82
2021/04/27 03:13:58;;;;;;;59.47;22.83;;;;;;;-1.89;52.25;99045.52;114294;1193;64397;-83
2021/04/27 03:16:25;;;;;;;60.07;22.53;;;;;;;-1.85;53.26;99044.53;114420;1193;64433;-82
2021/04/27 03:18:52;;;;;;;47.47;21.70;;;;;;;-1.84;53.40;99046.28;114383;1193;64436;-82
2021/04/27 03:21:19;;;;;;;56.90;21.45;;;;;;;-1.94;53.40;99046.47;114427;1193;64452;-82
2021/04/27 03:23:47;;;;;;;56.05;21.15;;;;;;;-2.04;52.73;99044.94;114312;1193;64320;-82
2021/04/27 03:26:14;;;;;;;56.70;24.10;;;;;;;-2.13;53.00;99042.53;114290;1193;64324;-83
2021/04/27 03:28:56;;;;;;;48.77;22.17;;;;;;;-2.18;53.11;99037.38;114300;1193;64295;-85
2021/04/27 03:31:23;;;;;;;56.70;22.70;;;;;;;-2.23;53.37;99039.27;114631;1193;64407;-83
2021/04/27 03:33:50;;;;;;;70.63;21.70;;;;;;;-2.25;53.52;99042.78;114204;1193;64423;-83
2021/04/27 03:36:16;;;;;;;57.47;23.60;;;;;;;-2.23;53.58;99046.22;114357;1193;64356;-87
2021/04/27 03:38:44;;;;;;;72.60;24.27;;;;;;;-2.12;53.63;99046.86;114270;1193;64401;-82
2021/04/27 03:41:10;;;;;;;68.50;23.13;;;;;;;-1.99;54.00;99043.09;114858;1193;64433;-83
2021/04/27 03:43:37;;;;;;;67.47;25.30;;;;;;;-1.89;53.81;99045.52;114420;1193;64375;-86
2021/04/27 03:46:04;;;;;;;56.05;21.45;;;;;;;-1.82;53.92;99042.72;114498;1193;64428;-81
2021/04/27 03:48:31;;;;;;;60.63;20.40;;;;;;;-1.79;53.51;99039.16;114284;1193;64433;-82
2021/04/27 03:51:01;;;;;;;56.43;21.20;;;;;;;-1.82;53.40;99036.63;114536;1193;64433;-83
2021/04/27 03:53:48;;;;;;;50.70;20.87;;;;;;;-1.85;53.48;99037.55;114316;1193;64426;-83
2021/04/27 03:56:18;;;;;;;57.30;22.10;;;;;;;-1.84;53.73;99038.44;114469;1193;64371;-84
2021/04/27 03:58:45;;;;;;;61.90;23.30;;;;;;;-1.87;53.63;99041.10;114402;1193;64298;-85
2021/04/27 04:01:12;;;;;;;53.73;21.43;;;;;;;-1.79;53.65;99044.41;114607;1193;65565;-84
2021/04/27 04:03:40;;;;;;;49.40;21.20;;;;;;;-1.74;53.38;99048.64;114414;1193;64449;-83
2021/04/27 04:06:07;;;;;;;60.00;23.57;;;;;;;-1.58;53.58;99049.16;114259;1193;64324;-82
2021/04/27 04:08:53;;;;;;;48.47;20.43;;;;;;;-1.36;52.77;99045.13;114649;1193;64391;-83
2021/04/27 04:11:22;;;;;;;66.50;21.90;;;;;;;-1.23;52.97;99040.45;114468;1193;64439;-80
2021/04/27 04:13:49;;;;;;;65.20;23.37;;;;;;;-1.09;52.92;99037.47;114427;1193;64368;-83
2021/04/27 04:16:16;;;;;;;75.40;26.67;;;;;;;-0.83;54.03;99037.69;114268;1193;64320;-81
2021/04/27 04:18:43;;;;;;;62.63;26.90;;;;;;;-0.54;53.49;99041.27;114305;1193;64370;-83
2021/04/27 04:21:10;;;;;;;67.57;27.53;;;;;;;-0.37;53.31;99043.44;114434;1193;64372;-83
2021/04/27 04:23:55;;;;;;;72.83;28.07;;;;;;;-0.20;52.80;99045.56;114408;1193;64304;-80
2021/04/27 04:26:22;;;;;;;75.90;28.55;;;;;;;-0.06;52.71;99044.28;114390;1193;64372;-85
2021/04/27 04:29:08;;;;;;;79.05;26.50;;;;;;;0.16;53.42;99044.48;114510;1193;64311;-81
2021/04/27 04:31:36;;;;;;;74.00;25.90;;;;;;;0.36;52.44;99041.25;114191;1193;64346;-80
2021/04/27 04:34:21;;;;;;;72.87;26.80;;;;;;;0.62;52.89;99047.45;114252;1193;64346;-82
2021/04/27 04:37:08;;;;;;;81.00;26.20;;;;;;;0.91;53.22;99051.77;114535;1193;64352;-81
2021/04/27 04:39:54;;;;;;;73.25;26.00;;;;;;;1.22;53.08;99054.23;114286;1193;64295;-80
2021/04/27 04:42:44;;;;;;;90.27;30.23;;;;;;;1.55;53.23;99046.93;114312;1193;64326;-83
2021/04/27 04:45:40;;;;;;;92.97;36.03;;;;;;;1.92;53.50;99048.23;114263;1193;64477;-81
2021/04/27 04:48:25;;;;;;;81.45;35.65;;;;;;;2.16;52.98;99045.53;114311;1193;64397;-85
2021/04/27 04:50:55;;;;;;;80.05;33.50;;;;;;;2.29;52.84;99055.57;114508;1193;64413;-81
2021/04/27 04:53:41;;;;;;;80.13;32.13;;;;;;;2.48;52.50;99051.30;114238;1193;64346;-81
2021/04/27 04:56:08;;;;;;;95.03;31.10;;;;;;;2.73;52.95;99043.28;114532;1193;64375;-82
2021/04/27 04:58:36;;;;;;;70.50;27.97;;;;;;;3.07;52.61;99049.83;114205;1193;65721;-81
2021/04/27 05:01:07;;;;;;;75.73;26.67;;;;;;;3.33;52.50;99048.72;114348;1193;64480;-87
2021/04/27 05:03:39;;;;;;;73.47;27.30;;;;;;;3.59;52.71;99043.17;114622;1192;64372;-81
2021/04/27 05:06:25;;;;;;;71.00;24.95;;;;;;;3.72;52.50;99048.77;114403;1193;64428;-81
2021/04/27 05:09:14;;;;;;;63.90;25.27;;;;;;;3.86;52.56;99043.72;114626;1193;64337;-84
2021/04/27 05:12:03;;;;;;;59.27;25.47;;;;;;;4.11;52.17;99045.25;114558;1193;64372;-80
2021/04/27 05:14:36;;;;;;;67.17;25.57;;;;;;;4.34;52.35;99048.55;114466;1193;64311;-80
2021/04/27 05:17:05;;;;;;;52.57;21.20;;;;;;;4.58;51.98;99046.54;114799;1193;64356;-84
2021/04/27 05:19:32;;;;;;;57.20;19.63;;;;;;;4.80;51.86;99045.48;114290;1193;64286;-81
2021/04/27 05:22:01;;;;;;;37.47;15.83;;;;;;;5.08;51.98;99051.13;114412;1193;64321;-81
2021/04/27 05:24:30;;;;;;;44.80;17.95;;;;;;;5.41;51.84;99045.09;114673;1193;64369;-88
2021/04/27 05:27:00;;;;;;;44.40;18.00;;;;;;;5.72;51.92;99049.63;114314;1193;64515;-81
2021/04/27 05:29:27;;;;;;;36.73;16.17;;;;;;;5.93;51.54;99037.94;114383;1193;64337;-86
2021/04/27 05:31:53;;;;;;;34.95;14.25;;;;;;;6.20;51.92;99038.23;114292;1193;64362;-82
2021/04/27 05:34:20;;;;;;;29.70;12.07;;;;;;;6.65;51.68;99036.63;114393;1193;64340;-80
2021/04/27 05:36:48;;;;;;;29.63;12.23;;;;;;;7.08;51.68;99047.45;114340;1193;64343;-84
2021/04/27 05:39:15;;;;;;;29.30;13.20;;;;;;;7.37;51.59;99036.91;114324;1193;64304;-84
2021/04/27 05:41:42;;;;;;;23.27;11.50;;;;;;;7.68;50.99;99042.10;114360;1193;64363;-82
2021/04/27 05:44:09;;;;;;;21.57;10.60;;;;;;;7.83;51.15;99043.84;114415;1193;64356;-82
2021/04/27 05:46:36;;;;;;;21.45;9.55;;;;;;;8.13;51.28;99037.56;114385;1193;64353;-82
2021/04/27 05:49:03;;;;;;;19.67;10.90;;;;;;;8.32;50.42;99035.46;114374;1193;64417;-83
2021/04/27 05:51:30;;;;;;;18.70;9.90;;;;;;;8.45;50.73;99037.38;114308;1192;64419;-83
2021/04/27 05:53:56;;;;;;;27.75;11.20;;;;;;;8.54;50.24;99036.81;114291;1193;64394;-81
2021/04/27 05:56:23;;;;;;;25.50;11.13;;;;;;;8.60;50.12;99036.42;114608;1193;64340;-82
2021/04/27 05:58:50;;;;;;;22.37;12.17;;;;;;;8.61;50.45;99044.30;114337;1193;64198;-82
2021/04/27 06:01:17;;;;;;;24.53;12.47;;;;;;;8.80;50.66;99043.11;114467;1193;64372;-83
2021/04/27 06:03:44;;;;;;;32.53;12.57;;;;;;;9.00;50.81;99047.98;114462;1193;64323;-82
2021/04/27 06:06:10;;;;;;;27.13;10.97;;;;;;;9.29;50.66;99050.52;114472;1192;64684;-85
2021/04/27 06:08:37;;;;;;;26.80;9.70;;;;;;;9.52;50.48;99044.50;114347;1191;64427;-82
2021/04/27 06:11:06;;;;;;;21.07;9.20;;;;;;;9.65;50.35;99047.19;114351;1193;64515;-84
2021/04/27 06:13:34;;;;;;;20.80;9.43;;;;;;;9.78;50.22;99048.05;114416;1193;64356;-82
2021/04/27 06:16:01;;;;;;;17.40;8.70;;;;;;;9.75;49.61;99048.27;114364;1193;64369;-80
2021/04/27 06:18:28;;;;;;;19.67;9.47;;;;;;;9.68;49.99;99047.84;114292;1193;64375;-86
2021/04/27 06:20:56;;;;;;;21.73;9.80;;;;;;;10.06;50.53;99041.66;114148;1193;64423;-83
2021/04/27 06:23:23;;;;;;;20.97;9.37;;;;;;;10.26;50.08;99046.47;114359;1193;64420;-81
2021/04/27 06:25:51;;;;;;;21.95;10.10;;;;;;;10.27;50.22;99041.98;114302;1193;64432;-84
2021/04/27 06:28:17;;;;;;;20.77;10.97;;;;;;;10.38;50.11;99046.58;114326;1193;64395;-84
2021/04/27 06:30:45;;;;;;;17.10;8.85;;;;;;;10.40;49.72;99048.16;114394;1193;64362;-83
2021/04/27 06:33:12;;;;;;;16.80;8.17;;;;;;;10.29;49.30;99051.58;114357;1193;64375;-82
2021/04/27 06:35:39;;;;;;;15.93;8.67;;;;;;;10.43;49.63;99050.63;114342;1192;64286;-83
2021/04/27 06:38:06;;;;;;;23.00;9.00;;;;;;;10.55;49.74;99056.88;114484;1193;64365;-84
2021/04/27 06:40:33;;;;;;;19.27;8.80;;;;;;;10.72;49.66;99053.00;114333;1193;64356;-81
2021/04/27 06:42:59;;;;;;;14.60;7.00;;;;;;;10.86;49.60;99050.16;114305;1193;64414;-83
2021/04/27 06:45:27;;;;;;;12.73;7.13;;;;;;;10.95;49.46;99054.00;114285;1192;64368;-82
2021/04/27 06:47:53;;;;;;;12.07;6.47;;;;;;;11.06;49.38;99059.38;114257;1193;64359;-82
2021/04/27 06:50:21;;;;;;;12.20;5.50;;;;;;;11.07;48.97;99053.94;114282;1193;64356;-80
2021/04/27 06:52:47;;;;;;;12.50;6.87;;;;;;;11.02;48.79;99050.75;114257;1193;64291;-83
2021/04/27 06:55:15;;;;;;;13.90;6.40;;;;;;;11.00;48.55;99054.48;114319;1193;64372;-81
2021/04/27 06:57:41;;;;;;;11.60;5.67;;;;;;;10.95;48.70;99057.52;114289;1193;65580;-84
2021/04/27 07:00:09;;;;;;;14.87;5.47;;;;;;;10.97;48.71;99054.73;114286;1193;64483;-82
2021/04/27 07:02:36;;;;;;;12.20;5.13;;;;;;;11.02;48.70;99056.09;114436;1193;64426;-85
2021/04/27 07:05:03;;;;;;;10.73;5.27;;;;;;;11.16;48.43;99046.20;114309;1193;64442;-80
2021/04/27 07:07:30;;;;;;;10.97;5.27;;;;;;;11.15;48.14;99049.84;114339;1193;64368;-85
2021/04/27 07:09:56;;;;;;;9.83;4.70;;;;;;;11.22;48.30;99054.61;114468;1193;64374;-82
2021/04/27 07:12:23;;;;;;;8.73;4.83;;;;;;;11.31;48.07;99050.39;114348;1193;64407;-81
2021/04/27 07:14:50;;;;;;;7.00;4.33;;;;;;;11.38;48.52;99056.97;114324;1193;64445;-85
2021/04/27 07:17:17;;;;;;;10.03;5.00;;;;;;;11.46;48.17;99045.72;114375;1193;64401;-82
2021/04/27 07:19:44;;;;;;;8.13;4.40;;;;;;;11.43;47.59;99048.61;114392;1193;64286;-84
2021/04/27 07:22:11;;;;;;;11.43;5.00;;;;;;;11.44;47.94;99050.31;114438;1193;64426;-83
2021/04/27 07:24:39;;;;;;;9.17;5.50;;;;;;;11.67;48.12;99046.75;114363;1193;64432;-85
2021/04/27 07:27:05;;;;;;;10.37;4.70;;;;;;;11.84;47.84;99057.05;114255;1193;64384;-83
2021/04/27 07:29:32;;;;;;;10.60;4.23;;;;;;;11.86;47.87;99049.74;114356;1193;64375;-82
2021/04/27 07:32:00;;;;;;;12.63;4.50;;;;;;;12.03;48.52;99040.41;114321;1193;64407;-81
2021/04/27 07:34:26;;;;;;;9.43;4.43;;;;;;;12.17;47.53;99045.53;114237;1193;64366;-84
2021/04/27 07:36:53;;;;;;;8.23;4.73;;;;;;;12.15;47.85;99043.92;114248;1193;64513;-81
2021/04/27 07:39:20;;;;;;;11.10;5.20;;;;;;;12.10;47.68;99040.78;114381;1193;64394;-84
2021/04/27 07:41:47;;;;;;;7.10;4.17;;;;;;;12.02;47.70;99053.89;114247;1193;64323;-80
2021/04/27 07:44:14;;;;;;;9.13;4.40;;;;;;;11.94;47.46;99057.17;114364;1193;64443;-80
2021/04/27 07:46:40;;;;;;;10.07;4.10;;;;;;;12.04;47.52;99047.47;114444;1193;64320;-81
2021/04/27 07:49:08;;;;;;;6.80;4.00;;;;;;;12.02;47.38;99054.74;114163;1193;64493;-85
2021/04/27 07:51:35;;;;;;;5.30;3.90;;;;;;;11.94;47.10;99051.82;114220;1196;64807;-85
2021/04/27 07:54:01;;;;;;;7.30;4.10;;;;;;;11.93;47.96;99044.77;114450;1193;64369;-82
2021/04/27 07:56:30;;;;;;;6.97;4.07;;;;;;;12.13;48.01;99045.88;114357;1193;64366;-82
2021/04/27 07:58:59;;;;;;;7.93;3.93;;;;;;;12.29;47.72;99038.36;114369;1193;64359;-84
2021/04/27 08:01:26;;;;;;;6.87;4.40;;;;;;;12.51;47.47;99044.67;114405;1192;64544;-81
2021/04/27 08:03:53;;;;;;;10.90;4.30;;;;;;;12.47;47.26;99044.08;114452;1193;64443;-81
2021/04/27 08:06:19;;;;;;;7.70;4.20;;;;;;;12.60;47.12;99049.30;114445;1193;64429;-85
2021/04/27 08:08:46;;;;;;;6.23;3.80;;;;;;;12.63;47.14;99043.69;114433;1193;64407;-86
2021/04/27 08:11:14;;;;;;;8.07;3.93;;;;;;;12.74;47.40;99040.14;114322;1193;64334;-81
2021/04/27 08:13:41;;;;;;;6.47;3.87;;;;;;;12.95;47.18;99046.42;114393;1193;64397;-80
2021/04/27 08:16:11;;;;;;;11.30;4.67;;;;;;;13.06;47.07;99049.08;114337;1193;64474;-82
2021/04/27 08:18:38;;;;;;;6.77;3.60;;;;;;;13.21;46.33;99044.30;114322;1193;64449;-81
2021/04/27 08:21:07;;;;;;;6.97;4.40;;;;;;;13.20;46.35;99045.25;114452;1193;64291;-81
2021/04/27 08:23:37;;;;;;;8.13;4.90;;;;;;;13.11;46.53;99049.56;114357;1193;64455;-83
2021/04/27 08:26:06;;;;;;;8.50;3.80;;;;;;;12.89;46.30;99047.77;114332;1193;64288;-84
2021/04/27 08:28:32;;;;;;;10.83;5.90;;;;;;;12.90;46.60;99052.15;114347;1193;64333;-80
2021/04/27 08:31:00;;;;;;;8.75;4.75;;;;;;;12.99;46.61;99048.73;114402;1193;64500;-80
2021/04/27 08:33:27;;;;;;;8.10;4.80;;;;;;;13.00;46.06;99044.22;114510;1193;64289;-85
2021/04/27 08:35:53;;;;;;;6.93;3.87;;;;;;;13.17;46.40;99049.05;114267;1193;64349;-82
2021/04/27 08:38:21;;;;;;;5.55;3.45;;;;;;;13.28;46.49;99042.81;114379;1193;64426;-82
2021/04/27 08:40:48;;;;;;;7.50;4.10;;;;;;;13.31;46.08;99049.77;114342;1193;64365;-82
2021/04/27 08:43:16;;;;;;;6.17;3.60;;;;;;;13.32;45.72;99046.09;114301;1193;64397;-84
2021/04/27 08:45:44;;;;;;;4.13;3.10;;;;;;;13.12;45.64;99050.41;114395;1193;64445;-79
2021/04/27 08:48:14;;;;;;;6.20;3.20;;;;;;;13.20;46.13;99047.94;114483;1193;64365;-81
2021/04/27 08:50:43;;;;;;;16.73;11.37;;;;;;;13.40;46.18;99043.62;114470;1193;64413;-79
2021/04/27 08:53:11;;;;;;;10.73;5.60;;;;;;;12.96;45.23;99045.44;114548;1192;64301;-80
2021/04/27 08:55:39;;;;;;;10.63;3.30;;;;;;;12.94;45.52;99048.25;114503;1193;64366;-85
2021/04/27 08:58:14;;;;;;;7.67;3.63;;;;;;;13.15;45.83;99044.78;114401;1193;64362;-83
2021/04/27 09:00:46;;;;;;;9.70;3.40;;;;;;;13.34;45.30;99044.98;114412;1193;64237;-78
2021/04/27 09:03:14;;;;;;;6.60;3.17;;;;;;;13.33;45.23;99032.55;114479;1193;64413;-79
2021/04/27 09:05:44;;;;;;;8.37;3.00;;;;;;;13.27;44.82;99037.58;114353;1193;64366;-80
2021/04/27 09:08:12;;;;;;;4.05;2.85;;;;;;;13.27;45.36;99032.22;114372;1193;64359;-81
2021/04/27 09:10:45;;;;;;;7.97;2.77;;;;;;;13.22;44.77;99033.44;114373;1193;64355;-81
2021/04/27 09:13:17;;;;;;;17.25;3.95;;;;;;;13.33;44.82;99026.34;114442;1193;64359;-80
2021/04/27 09:15:47;;;;;;;7.87;3.07;;;;;;;13.13;45.18;99036.02;114361;1193;64414;-80
2021/04/27 09:18:36;;;;;;;8.45;3.70;;;;;;;13.33;45.17;99023.66;114381;1193;64364;-81
2021/04/27 09:21:09;;;;;;;6.70;3.50;;;;;;;13.59;45.37;99034.88;114499;1193;64337;-79
2021/04/27 09:23:42;;;;;;;7.90;3.33;;;;;;;13.67;44.75;99027.86;114484;1193;64366;-82
2021/04/27 09:26:18;;;;;;;6.95;3.15;;;;;;;13.62;44.36;99016.69;114428;1193;64378;-85
2021/04/27 09:28:48;;;;;;;3.87;2.90;;;;;;;13.61;44.59;99019.48;114447;1193;64484;-81
2021/04/27 09:31:31;;;;;;;5.70;3.47;;;;;;;13.35;44.04;99021.69;114311;1192;64381;-83
2021/04/27 09:34:28;;;;;;;5.85;3.30;;;;;;;13.23;44.38;99010.16;114376;1193;65334;-81
2021/04/27 09:37:01;;;;;;;4.63;2.63;;;;;;;13.15;43.86;99013.45;114295;1193;64355;-78
2021/04/27 09:39:36;;;;;;;4.93;2.70;;;;;;;13.32;44.32;99009.40;114450;1193;64455;-80
2021/04/27 09:42:15;;;;;;;7.20;3.73;;;;;;;13.45;44.64;99001.17;114447;1193;64356;-80
2021/04/27 09:44:51;;;;;;;10.53;2.77;;;;;;;13.33;42.99;99008.41;114541;1193;64548;-81
2021/04/27 09:47:30;;;;;;;15.27;5.13;;;;;;;13.21;44.03;99010.29;114330;1193;64458;-80
2021/04/27 09:50:06;;;;;;;15.07;8.03;;;;;;;13.40;44.13;99006.06;114467;1193;64384;-81
2021/04/27 09:52:37;;;;;;;;;;;;;;;13.51;43.79;98996.13;114407;1201;64353;-78
2021/04/27 09:55:06;;;;;;;9.40;4.37;;;;;;;13.57;43.65;98991.23;114502;1193;64368;-81
2021/04/27 09:57:38;;;;;;;17.30;7.40;;;;;;;13.69;43.43;98996.40;114461;1193;64311;-80
2021/04/27 10:00:33;;;;;;;10.05;4.15;;;;;;;13.55;42.77;98999.42;114378;1193;64401;-79
2021/04/27 10:03:09;;;;;;;5.20;2.70;;;;;;;13.43;42.30;98995.94;114455;1193;64353;-79
2021/04/27 10:05:43;;;;;;;5.23;2.27;;;;;;;13.01;41.33;98992.30;114407;1193;64353;-80
2021/04/27 10:08:17;;;;;;;5.13;2.80;;;;;;;13.01;43.82;98989.63;114473;1192;64506;-80
2021/04/27 10:10:47;;;;;;;8.17;3.27;;;;;;;13.35;43.97;98982.30;114597;1193;64449;-81
2021/04/27 10:13:16;;;;;;;4.87;3.30;;;;;;;13.68;43.89;98983.97;114487;1193;64404;-80
2021/04/27 10:15:45;;;;;;;8.80;6.00;;;;;;;13.95;43.75;98977.19;114309;1192;64359;-80
2021/04/27 10:18:12;;;;;;;18.07;9.50;;;;;;;13.93;42.94;98976.45;114347;1193;64378;-81
2021/04/27 10:20:39;;;;;;;13.30;5.35;;;;;;;13.87;43.18;98967.13;114312;1193;64382;-82
2021/04/27 10:23:11;;;;;;;19.65;10.65;;;;;;;14.04;43.58;98965.63;114372;1193;64363;-79
2021/04/27 10:25:38;;;;;;;8.93;3.90;;;;;;;14.38;43.31;98965.32;114439;1193;64333;-80
2021/04/27 10:28:08;;;;;;;7.85;5.90;;;;;;;14.51;43.08;98958.77;114319;1193;64252;-80
2021/04/27 10:30:39;;;;;;;113.30;68.30;;;;;;;14.55;42.99;98956.64;114359;1193;64400;-81
2021/04/27 10:33:06;;;;;;;6.20;4.20;;;;;;;14.54;42.91;98950.42;114447;1193;64285;-85
2021/04/27 10:35:37;;;;;;;4.60;2.33;;;;;;;14.66;43.01;98948.47;114521;1193;64292;-85
2021/04/27 10:38:08;;;;;;;4.50;2.70;;;;;;;14.62;42.36;98941.66;114303;1193;64414;-81
2021/04/27 10:40:40;;;;;;;11.75;4.95;;;;;;;14.63;42.41;98951.42;114407;1193;64388;-81
2021/04/27 10:43:22;;;;;;;3.67;2.40;;;;;;;14.68;42.78;98935.73;114384;1193;64359;-84
2021/04/27 10:45:51;;;;;;;4.23;2.60;;;;;;;14.70;42.34;98932.92;114287;1193;64459;-81
2021/04/27 10:48:28;;;;;;;8.57;5.27;;;;;;;14.68;42.73;98935.73;114357;1193;64500;-84
2021/04/27 10:50:59;;;;;;;5.10;2.70;;;;;;;14.85;42.49;98916.23;114325;1193;64352;-82
2021/04/27 10:53:35;;;;;;;8.67;4.37;;;;;;;14.78;42.25;98923.16;114375;1193;64359;-81
2021/04/27 10:56:06;;;;;;;8.03;4.47;;;;;;;14.71;42.34;98921.18;114234;1193;64343;-85
2021/04/27 10:58:55;;;;;;;9.97;5.07;;;;;;;14.79;42.15;98924.01;114133;1192;64449;-80
2021/04/27 11:01:28;;;;;;;7.83;4.43;;;;;;;14.81;42.22;98914.80;114320;1192;64439;-82
2021/04/27 11:03:57;;;;;;;7.20;3.30;;;;;;;14.88;42.00;98907.87;114357;1193;64299;-83
2021/04/27 11:06:24;;;;;;;10.00;2.90;;;;;;;14.78;41.73;98909.72;114232;1193;64448;-82
2021/04/27 11:08:56;;;;;;;4.65;2.80;;;;;;;14.75;41.76;98903.77;114285;1193;64314;-82
2021/04/27 11:11:26;;;;;;;13.67;5.33;;;;;;;14.86;41.45;98907.17;114364;1193;64464;-82
2021/04/27 11:14:13;;;;;;;7.10;4.20;;;;;;;14.81;41.59;98908.58;114424;1193;64505;-79
2021/04/27 11:16:41;;;;;;;3.20;2.27;;;;;;;14.84;41.83;98911.00;114336;1192;64375;-84
2021/04/27 11:19:18;;;;;;;6.15;4.00;;;;;;;14.97;41.78;98898.12;114468;1193;64449;-81
2021/04/27 11:21:53;;;;;;;5.70;2.50;;;;;;;14.96;41.06;98892.89;114401;1192;64445;-82
2021/04/27 11:24:38;;;;;;;4.65;2.38;;;;;;;14.99;41.38;98895.28;114336;1193;64363;-81
2021/04/27 11:27:23;;;;;;;3.60;2.30;;;;;;;14.91;40.53;98884.39;114415;1192;64320;-80
2021/04/27 11:29:56;;;;;;;41.18;20.48;;;;;;;14.87;41.07;98894.57;114404;1193;64353;-84
2021/04/27 11:32:23;;;;;;;3.43;2.70;;;;;;;14.91;41.24;98887.09;114401;1193;64308;-80
2021/04/27 11:35:17;;;;;;;5.03;2.40;;;;;;;14.87;40.34;98887.35;114371;1193;64391;-79